Time;durP1;ratioP1;P1;durP2;ratioP2;P2;SDS_P1;SDS_P2;PMS_P1;PMS_P2;Temp;Humidity;BMP_temperature;BMP_pressure;BME280_temperature;BME280_humidity;BME280_pressure;Samples;Min_cycle;Max_cycle;Signal;HPM_P1;HPM_P2
2022/04/16 00:00:17;;;;;;;55.13;35.97;;;;;;;;;;5009876;28;20069;-73
2022/04/16 00:02:46;;;;;;;52.80;34.47;;;;;;;;;;4992541;28;20061;-74
2022/04/16 00:05:12;;;;;;;56.53;34.42;;;;;;;;;;5009330;28;20045;-73
2022/04/16 00:07:39;;;;;;;51.10;34.13;;;;;;;;;;5009863;28;20038;-75
2022/04/16 00:10:05;;;;;;;58.90;37.80;;;;;;;;;;5009541;28;20038;-76
2022/04/16 00:12:31;;;;;;;55.40;39.88;;;;;;;;;;5009789;28;20050;-75
2022/04/16 00:14:57;;;;;;;57.25;37.58;;;;;;;;;;4992164;28;20070;-75
2022/04/16 00:17:23;;;;;;;51.00;37.10;;;;;;;;;;5009822;28;20540;-74
2022/04/16 00:19:49;;;;;;;53.03;34.05;;;;;;;;;;5009706;28;20212;-75
2022/04/16 00:22:15;;;;;;;56.65;38.25;;;;;;;;;;5009636;28;20507;-75
2022/04/16 00:24:44;;;;;;;52.90;33.88;;;;;;;;;;5009813;28;20045;-75
2022/04/16 00:27:10;;;;;;;49.13;33.17;;;;;;;;;;5010153;28;20053;-74
2022/04/16 00:29:36;;;;;;;57.67;37.53;;;;;;;;;;5013513;28;20046;-75
2022/04/16 00:32:05;;;;;;;51.38;34.20;;;;;;;;;;4995754;28;20062;-75
2022/04/16 00:34:33;;;;;;;52.03;34.53;;;;;;;;;;4996176;28;20042;-75
2022/04/16 00:36:59;;;;;;;62.60;40.35;;;;;;;;;;5013384;28;20041;-76
2022/04/16 00:39:25;;;;;;;64.53;39.92;;;;;;;;;;4995952;28;20041;-75
2022/04/16 00:41:51;;;;;;;59.22;39.20;;;;;;;;;;5013573;28;20465;-76
2022/04/16 00:44:21;;;;;;;60.90;40.38;;;;;;;;;;4978069;28;20569;-75
2022/04/16 00:46:47;;;;;;;55.53;35.55;;;;;;;;;;5013256;28;20113;-75
2022/04/16 00:49:13;;;;;;;62.83;42.60;;;;;;;;;;5012809;28;20053;-76
2022/04/16 00:51:39;;;;;;;58.63;38.38;;;;;;;;;;4979425;28;20057;-75
2022/04/16 00:54:05;;;;;;;60.03;39.05;;;;;;;;;;5013019;28;20096;-76
2022/04/16 00:56:31;;;;;;;61.92;40.40;;;;;;;;;;4995722;28;20050;-75
2022/04/16 00:58:58;;;;;;;66.85;40.47;;;;;;;;;;5013137;28;20044;-75
2022/04/16 01:01:24;;;;;;;62.28;40.88;;;;;;;;;;5013388;28;20137;-75
2022/04/16 01:03:50;;;;;;;63.40;39.70;;;;;;;;;;5013171;28;20477;-76
2022/04/16 01:06:16;;;;;;;67.05;43.30;;;;;;;;;;5017066;28;20053;-75
2022/04/16 01:08:44;;;;;;;67.05;41.33;;;;;;;;;;4995290;28;20042;-76
2022/04/16 01:11:11;;;;;;;58.17;39.90;;;;;;;;;;4997974;28;20405;-75
2022/04/16 01:13:37;;;;;;;64.22;44.10;;;;;;;;;;4978106;28;20046;-74
2022/04/16 01:16:04;;;;;;;63.72;42.42;;;;;;;;;;5001642;28;20045;-77
2022/04/16 01:18:30;;;;;;;61.17;41.33;;;;;;;;;;4996692;28;20046;-76
2022/04/16 01:20:55;;;;;;;64.90;38.83;;;;;;;;;;4995258;28;20459;-76
2022/04/16 01:23:21;;;;;;;61.35;40.15;;;;;;;;;;5012915;28;20053;-77
2022/04/16 01:25:47;;;;;;;67.70;44.67;;;;;;;;;;4995151;28;20041;-76
2022/04/16 01:28:13;;;;;;;69.72;41.22;;;;;;;;;;4994836;28;20064;-75
2022/04/16 01:30:38;;;;;;;67.20;42.75;;;;;;;;;;5012508;28;20034;-74
2022/04/16 01:33:04;;;;;;;54.45;37.05;;;;;;;;;;4994882;28;20053;-74
2022/04/16 01:35:30;;;;;;;42.40;31.08;;;;;;;;;;5012266;28;20046;-73
2022/04/16 01:37:57;;;;;;;49.85;34.90;;;;;;;;;;5012181;28;20490;-75
2022/04/16 01:40:25;;;;;;;49.25;32.78;;;;;;;;;;5011388;28;20116;-75
2022/04/16 01:42:52;;;;;;;44.15;32.05;;;;;;;;;;5012398;28;20127;-74
2022/04/16 01:45:18;;;;;;;42.35;30.45;;;;;;;;;;4994263;28;20065;-75
2022/04/16 01:47:44;;;;;;;46.20;32.70;;;;;;;;;;5012295;28;20058;-74
2022/04/16 01:50:10;;;;;;;42.65;33.17;;;;;;;;;;4994382;28;20469;-75
2022/04/16 01:52:36;;;;;;;43.88;33.50;;;;;;;;;;4994759;28;20050;-74
2022/04/16 01:55:01;;;;;;;39.10;34.72;;;;;;;;;;4994131;28;20092;-73
2022/04/16 01:57:29;;;;;;;44.08;34.83;;;;;;;;;;5012165;28;20045;-73
2022/04/16 01:59:54;;;;;;;45.45;34.92;;;;;;;;;;4978328;28;20395;-73
2022/04/16 02:02:20;;;;;;;48.67;37.83;;;;;;;;;;5011668;28;20145;-71
2022/04/16 02:04:46;;;;;;;53.83;40.60;;;;;;;;;;5011630;28;20446;-77
2022/04/16 02:07:13;;;;;;;59.25;45.92;;;;;;;;;;4993997;28;20506;-77
2022/04/16 02:09:39;;;;;;;50.83;35.92;;;;;;;;;;5011755;28;20309;-76
2022/04/16 02:12:06;;;;;;;53.33;43.55;;;;;;;;;;4993265;28;20198;-74
2022/04/16 02:14:32;;;;;;;51.95;36.80;;;;;;;;;;4977827;28;20037;-75
2022/04/16 02:16:59;;;;;;;46.65;36.47;;;;;;;;;;5011921;28;20498;-76
2022/04/16 02:19:25;;;;;;;42.67;37.72;;;;;;;;;;5011637;28;20041;-76
2022/04/16 02:21:51;;;;;;;32.92;28.27;;;;;;;;;;4977835;28;20123;-75
2022/04/16 02:24:17;;;;;;;41.25;36.75;;;;;;;;;;5011223;28;20504;-75
2022/04/16 02:26:44;;;;;;;43.92;38.38;;;;;;;;;;4977953;28;20589;-74
2022/04/16 02:29:10;;;;;;;36.47;32.70;;;;;;;;;;5011451;28;20398;-78
2022/04/16 02:31:37;;;;;;;29.73;26.15;;;;;;;;;;5011758;28;20038;-76
2022/04/16 02:34:05;;;;;;;28.50;25.55;;;;;;;;;;5010962;28;20054;-78
2022/04/16 02:36:34;;;;;;;29.50;26.63;;;;;;;;;;4993779;28;20046;-75
2022/04/16 02:39:00;;;;;;;31.25;28.20;;;;;;;;;;4993584;28;20048;-77
2022/04/16 02:41:26;;;;;;;25.80;23.10;;;;;;;;;;5011198;28;20041;-76
2022/04/16 02:43:55;;;;;;;30.40;27.13;;;;;;;;;;5011069;28;20094;-76
2022/04/16 02:49:06;;;;;;;24.52;21.95;;;;;;;;;;5010575;28;20048;-76
2022/04/16 02:51:32;;;;;;;20.58;18.67;;;;;;;;;;4992936;28;20409;-76
2022/04/16 02:53:58;;;;;;;26.48;23.88;;;;;;;;;;5010894;28;20049;-76
2022/04/16 02:56:24;;;;;;;17.13;15.68;;;;;;;;;;4976798;28;20480;-75
2022/04/16 02:58:49;;;;;;;20.05;18.10;;;;;;;;;;5010780;28;20048;-75
2022/04/16 03:01:15;;;;;;;22.70;20.80;;;;;;;;;;5011573;28;20046;-76
2022/04/16 03:03:41;;;;;;;21.52;19.80;;;;;;;;;;4994555;28;20038;-76
2022/04/16 03:06:07;;;;;;;20.98;19.08;;;;;;;;;;5011334;28;20228;-75
2022/04/16 03:08:33;;;;;;;21.77;19.98;;;;;;;;;;5010530;28;20379;-75
2022/04/16 03:10:59;;;;;;;18.63;17.02;;;;;;;;;;5010467;28;20045;-75
2022/04/16 03:13:25;;;;;;;23.95;21.60;;;;;;;;;;5010473;28;20352;-76
2022/04/16 03:18:35;;;;;;;19.02;17.02;;;;;;;;;;5010580;28;20125;-75
2022/04/16 03:21:01;;;;;;;18.20;16.58;;;;;;;;;;5010443;28;20132;-75
2022/04/16 03:23:28;;;;;;;11.65;10.82;;;;;;;;;;5010290;28;20037;-74
2022/04/16 03:25:56;;;;;;;18.40;16.67;;;;;;;;;;4992607;28;20042;-75
2022/04/16 03:28:22;;;;;;;22.83;20.98;;;;;;;;;;4992539;28;20061;-74
2022/04/16 03:30:48;;;;;;;22.67;20.75;;;;;;;;;;5010388;28;20410;-77
2022/04/16 03:33:14;;;;;;;21.98;19.98;;;;;;;;;;5010000;28;20529;-78
2022/04/16 03:35:40;;;;;;;20.30;18.73;;;;;;;;;;5010232;28;20045;-78
2022/04/16 03:38:05;;;;;;;16.88;15.57;;;;;;;;;;5009997;28;20049;-77
2022/04/16 03:40:31;;;;;;;19.10;17.80;;;;;;;;;;5010098;28;20057;-77
2022/04/16 03:43:01;;;;;;;15.88;14.68;;;;;;;;;;4992676;28;20049;-77
2022/04/16 03:45:28;;;;;;;18.70;17.30;;;;;;;;;;5009751;28;20124;-75
2022/04/16 03:47:54;;;;;;;20.08;18.50;;;;;;;;;;5009813;28;20069;-74
2022/04/16 03:50:20;;;;;;;16.63;15.48;;;;;;;;;;4992070;28;20536;-76
2022/04/16 03:52:46;;;;;;;11.85;11.00;;;;;;;;;;4992490;28;20135;-76
2022/04/16 04:00:56;;;;;;;12.45;11.65;;;;;;;;;;4956323;28;20059;-77
2022/04/16 04:03:22;;;;;;;13.85;13.02;;;;;;;;;;5009075;28;20072;-76
2022/04/16 04:05:49;;;;;;;10.80;9.95;;;;;;;;;;5009938;28;20078;-75
2022/04/16 04:08:15;;;;;;;11.02;10.32;;;;;;;;;;4991997;28;20057;-75
2022/04/16 04:10:41;;;;;;;9.10;8.43;;;;;;;;;;5009762;28;20129;-74
2022/04/16 04:13:07;;;;;;;9.25;8.55;;;;;;;;;;4992329;28;20161;-76
2022/04/16 04:15:32;;;;;;;10.27;9.57;;;;;;;;;;4992350;28;20042;-77
2022/04/16 04:18:02;;;;;;;10.52;9.88;;;;;;;;;;5009820;28;20046;-76
2022/04/16 04:20:28;;;;;;;8.35;7.82;;;;;;;;;;4992490;28;20112;-75
2022/04/16 04:22:54;;;;;;;9.13;8.57;;;;;;;;;;5009830;28;20038;-75
2022/04/16 04:25:20;;;;;;;6.30;5.90;;;;;;;;;;5009374;28;20414;-75
2022/04/16 04:27:46;;;;;;;11.38;10.57;;;;;;;;;;5009496;28;20053;-74
2022/04/16 04:30:12;;;;;;;8.00;7.50;;;;;;;;;;4991845;28;20129;-75
2022/04/16 04:32:38;;;;;;;8.25;7.65;;;;;;;;;;5009573;28;20124;-76
2022/04/16 04:35:04;;;;;;;10.65;10.05;;;;;;;;;;5009583;28;20066;-75
2022/04/16 04:37:30;;;;;;;8.20;7.70;;;;;;;;;;5009403;28;20552;-77
2022/04/16 04:39:56;;;;;;;8.25;7.75;;;;;;;;;;5009751;28;20069;-76
2022/04/16 04:42:25;;;;;;;5.53;5.22;;;;;;;;;;4991722;28;20056;-76
2022/04/16 04:44:51;;;;;;;6.43;6.03;;;;;;;;;;4971668;28;20038;-75
2022/04/16 04:47:17;;;;;;;6.50;6.10;;;;;;;;;;4975555;28;20053;-76
2022/04/16 04:49:43;;;;;;;5.65;5.35;;;;;;;;;;5009632;28;20569;-76
2022/04/16 04:52:09;;;;;;;4.45;4.25;;;;;;;;;;5009291;28;20056;-76
2022/04/16 04:54:34;;;;;;;4.47;4.18;;;;;;;;;;4991863;28;20077;-76
2022/04/16 04:57:00;;;;;;;4.32;4.13;;;;;;;;;;4991685;28;20050;-75
2022/04/16 04:59:26;;;;;;;4.95;4.70;;;;;;;;;;4991609;28;20126;-73
2022/04/16 05:01:52;;;;;;;5.10;4.88;;;;;;;;;;4991985;28;20134;-76
2022/04/16 05:04:17;;;;;;;2.88;2.78;;;;;;;;;;5008675;28;20045;-76
2022/04/16 05:06:44;;;;;;;3.58;3.38;;;;;;;;;;4997375;28;20132;-75
2022/04/16 05:09:10;;;;;;;4.65;4.38;;;;;;;;;;5008985;28;20137;-76
2022/04/16 05:11:36;;;;;;;3.67;3.47;;;;;;;;;;5009441;28;20058;-75
2022/04/16 05:14:02;;;;;;;3.22;3.13;;;;;;;;;;5011202;28;20105;-75
2022/04/16 05:16:28;;;;;;;3.25;3.05;;;;;;;;;;5012009;28;20507;-74
2022/04/16 05:18:54;;;;;;;3.05;2.85;;;;;;;;;;5012924;28;20108;-75
2022/04/16 05:21:19;;;;;;;3.25;3.15;;;;;;;;;;5011923;28;20034;-75
2022/04/16 05:23:45;;;;;;;2.90;2.70;;;;;;;;;;4995200;28;20541;-74
2022/04/16 05:26:11;;;;;;;2.20;2.10;;;;;;;;;;5011806;28;20097;-75
2022/04/16 05:28:37;;;;;;;2.60;2.50;;;;;;;;;;5012631;28;20042;-74
2022/04/16 05:31:03;;;;;;;2.50;2.40;;;;;;;;;;5012496;28;20492;-75
2022/04/16 05:36:14;;;;;;;2.28;2.17;;;;;;;;;;4994137;28;20123;-75
2022/04/16 05:38:40;;;;;;;2.90;2.80;;;;;;;;;;4994673;28;20116;-75
2022/04/16 05:41:05;;;;;;;2.70;2.60;;;;;;;;;;5012081;28;20042;-73
2022/04/16 05:43:31;;;;;;;2.72;2.63;;;;;;;;;;4994655;28;20048;-74
2022/04/16 05:45:57;;;;;;;2.45;2.35;;;;;;;;;;5012480;28;20080;-75
2022/04/16 05:48:23;;;;;;;2.40;2.30;;;;;;;;;;5011830;28;20077;-74
2022/04/16 05:50:49;;;;;;;2.30;2.20;;;;;;;;;;4994513;28;20561;-74
2022/04/16 05:53:15;;;;;;;2.30;2.20;;;;;;;;;;4978474;28;20041;-75
2022/04/16 05:55:41;;;;;;;2.40;2.30;;;;;;;;;;4994538;28;20533;-74
2022/04/16 05:58:07;;;;;;;2.25;2.15;;;;;;;;;;4994532;28;20541;-74
2022/04/16 06:00:33;;;;;;;2.30;2.20;;;;;;;;;;5011783;28;20041;-76
2022/04/16 06:02:59;;;;;;;2.10;2.00;;;;;;;;;;5012123;28;20046;-76
2022/04/16 06:05:25;;;;;;;2.20;2.10;;;;;;;;;;5011839;28;20073;-78
2022/04/16 06:07:51;;;;;;;1.92;1.90;;;;;;;;;;5011777;28;20064;-70
2022/04/16 06:10:16;;;;;;;1.90;1.90;;;;;;;;;;4993897;28;20046;-71
2022/04/16 06:12:43;;;;;;;1.63;1.63;;;;;;;;;;5011671;28;20481;-71
2022/04/16 06:15:09;;;;;;;1.40;1.40;;;;;;;;;;5011920;28;20077;-71
2022/04/16 06:17:35;;;;;;;2.10;2.00;;;;;;;;;;5011260;28;20053;-70
2022/04/16 06:20:01;;;;;;;2.55;2.45;;;;;;;;;;5014368;28;20107;-70
2022/04/16 06:22:28;;;;;;;1.80;1.80;;;;;;;;;;5003158;28;20034;-70
2022/04/16 06:24:54;;;;;;;2.30;2.20;;;;;;;;;;5019808;28;20087;-70
2022/04/16 06:27:20;;;;;;;2.20;2.10;;;;;;;;;;5022027;28;20051;-69
2022/04/16 06:29:45;;;;;;;2.30;2.20;;;;;;;;;;5025778;28;20041;-70
2022/04/16 06:32:11;;;;;;;1.95;1.90;;;;;;;;;;5003623;28;20049;-69
2022/04/16 06:34:37;;;;;;;1.85;1.85;;;;;;;;;;4991569;28;20037;-70
2022/04/16 06:37:03;;;;;;;1.88;1.83;;;;;;;;;;5009568;28;20057;-68
2022/04/16 06:39:29;;;;;;;2.03;1.92;;;;;;;;;;5010258;28;20049;-69
2022/04/16 06:41:55;;;;;;;2.30;2.20;;;;;;;;;;5010320;28;20034;-70
2022/04/16 06:44:21;;;;;;;2.20;2.10;;;;;;;;;;5010454;28;20080;-70
2022/04/16 06:46:46;;;;;;;2.47;2.38;;;;;;;;;;5011224;28;20042;-69
2022/04/16 06:49:13;;;;;;;2.38;2.17;;;;;;;;;;4993099;28;20049;-69
2022/04/16 06:51:38;;;;;;;2.35;2.15;;;;;;;;;;5010100;28;20422;-69
2022/04/16 06:54:04;;;;;;;2.40;2.30;;;;;;;;;;5009905;28;20188;-68
2022/04/16 06:56:30;;;;;;;2.22;2.13;;;;;;;;;;5009258;28;20395;-68
2022/04/16 06:58:56;;;;;;;2.30;2.20;;;;;;;;;;4992878;28;20054;-69
2022/04/16 07:01:22;;;;;;;2.20;2.10;;;;;;;;;;5009985;28;20417;-70
2022/04/16 07:03:48;;;;;;;2.72;2.60;;;;;;;;;;4992580;28;20052;-70
2022/04/16 07:06:13;;;;;;;3.20;3.00;;;;;;;;;;4976229;28;20046;-70
2022/04/16 07:08:39;;;;;;;2.53;2.42;;;;;;;;;;5010033;28;20045;-69
2022/04/16 07:11:05;;;;;;;1.98;1.88;;;;;;;;;;5001200;28;20123;-71
2022/04/16 07:13:31;;;;;;;2.58;2.47;;;;;;;;;;5003153;28;20096;-72
2022/04/16 07:15:57;;;;;;;2.10;2.00;;;;;;;;;;5019055;28;20127;-72
2022/04/16 07:18:25;;;;;;;2.15;2.05;;;;;;;;;;5001322;28;20429;-70
2022/04/16 07:20:51;;;;;;;2.45;2.35;;;;;;;;;;5018617;28;20195;-69
2022/04/16 07:23:16;;;;;;;2.10;2.00;;;;;;;;;;5014566;28;20128;-71
2022/04/16 07:25:42;;;;;;;2.20;2.10;;;;;;;;;;5016265;28;20042;-71
2022/04/16 07:28:10;;;;;;;2.65;2.55;;;;;;;;;;4991719;28;20048;-70
2022/04/16 07:30:37;;;;;;;5.00;4.60;;;;;;;;;;5008851;28;20037;-69
2022/04/16 07:33:04;;;;;;;2.88;2.67;;;;;;;;;;4990854;28;20509;-70
2022/04/16 07:35:29;;;;;;;2.10;2.00;;;;;;;;;;5008142;28;20081;-72
2022/04/16 07:37:58;;;;;;;2.30;2.20;;;;;;;;;;5008547;28;20516;-71
2022/04/16 07:40:25;;;;;;;2.60;2.50;;;;;;;;;;5010646;28;20520;-72
2022/04/16 07:42:51;;;;;;;2.40;2.30;;;;;;;;;;4999620;28;20045;-70
2022/04/16 07:45:16;;;;;;;2.88;2.28;;;;;;;;;;5016506;28;20022;-72
2022/04/16 07:47:43;;;;;;;3.70;3.50;;;;;;;;;;5020994;28;20425;-71
2022/04/16 07:50:09;;;;;;;2.78;2.67;;;;;;;;;;5028252;28;20061;-70
2022/04/16 07:52:35;;;;;;;2.20;2.10;;;;;;;;;;5011153;28;20545;-69
2022/04/16 07:55:04;;;;;;;2.50;2.30;;;;;;;;;;5002657;28;20039;-70
2022/04/16 07:57:30;;;;;;;2.55;2.45;;;;;;;;;;5011154;28;20050;-69
2022/04/16 07:59:56;;;;;;;2.55;2.35;;;;;;;;;;5018173;28;20045;-69
2022/04/16 08:02:21;;;;;;;3.08;2.53;;;;;;;;;;4982183;28;20038;-70
2022/04/16 08:04:47;;;;;;;2.50;2.40;;;;;;;;;;5024591;28;20042;-70
2022/04/16 08:07:13;;;;;;;1.85;1.75;;;;;;;;;;5011807;28;20085;-70
2022/04/16 08:09:42;;;;;;;1.88;1.88;;;;;;;;;;5001739;28;20324;-70
2022/04/16 08:12:11;;;;;;;2.03;1.95;;;;;;;;;;5015547;28;20682;-69
2022/04/16 08:14:37;;;;;;;2.50;2.40;;;;;;;;;;4996909;28;20044;-70
2022/04/16 08:17:03;;;;;;;2.40;2.30;;;;;;;;;;5013281;28;20054;-69
2022/04/16 08:19:29;;;;;;;2.72;2.63;;;;;;;;;;5014346;28;20469;-69
2022/04/16 08:21:55;;;;;;;2.67;2.58;;;;;;;;;;5016107;28;20052;-69
2022/04/16 08:26:57;;;;;;;2.70;2.50;;;;;;;;;;5014952;28;20041;-69
2022/04/16 08:29:23;;;;;;;2.92;2.83;;;;;;;;;;5015438;28;20080;-69
2022/04/16 08:31:50;;;;;;;2.90;2.70;;;;;;;;;;4999932;28;20065;-69
2022/04/16 08:34:23;;;;;;;3.88;3.67;;;;;;;;;;5016154;28;20116;-69
2022/04/16 08:36:59;;;;;;;2.78;2.65;;;;;;;;;;5015905;28;20052;-70
2022/04/16 08:39:28;;;;;;;5.90;5.50;;;;;;;;;;5016212;28;20696;-69
2022/04/16 08:41:58;;;;;;;2.53;2.42;;;;;;;;;;5016531;28;20096;-69
2022/04/16 08:44:27;;;;;;;2.97;2.78;;;;;;;;;;5019991;28;20128;-69
2022/04/16 08:46:56;;;;;;;3.55;3.35;;;;;;;;;;5017819;28;20467;-70
2022/04/16 08:49:22;;;;;;;2.92;2.83;;;;;;;;;;5015854;28;20107;-70
2022/04/16 08:51:48;;;;;;;3.28;3.08;;;;;;;;;;4994830;28;20050;-70
2022/04/16 08:54:17;;;;;;;4.80;4.43;;;;;;;;;;5014935;28;20037;-70
2022/04/16 08:56:43;;;;;;;2.80;2.70;;;;;;;;;;5019401;28;20049;-72
2022/04/16 08:59:09;;;;;;;3.65;3.45;;;;;;;;;;5004451;28;20044;-71
2022/04/16 09:01:35;;;;;;;5.20;4.88;;;;;;;;;;5014074;28;20100;-72
2022/04/16 09:04:00;;;;;;;3.72;3.50;;;;;;;;;;5014950;28;20046;-72
2022/04/16 09:06:27;;;;;;;4.00;3.80;;;;;;;;;;5017712;28;20624;-72
2022/04/16 09:08:54;;;;;;;3.72;3.53;;;;;;;;;;5004247;28;20477;-72
2022/04/16 09:11:20;;;;;;;3.83;3.63;;;;;;;;;;5018950;28;20075;-72
2022/04/16 09:13:49;;;;;;;3.88;3.67;;;;;;;;;;5015459;28;20069;-72
2022/04/16 09:16:14;;;;;;;4.70;4.18;;;;;;;;;;5019366;28;20053;-72
2022/04/16 09:18:44;;;;;;;5.15;4.75;;;;;;;;;;5021426;28;20049;-71
2022/04/16 09:21:12;;;;;;;4.72;4.47;;;;;;;;;;5015295;28;20048;-72
2022/04/16 09:23:39;;;;;;;5.97;5.57;;;;;;;;;;5021326;28;20426;-72
2022/04/16 09:26:05;;;;;;;5.93;5.53;;;;;;;;;;5001597;28;20049;-72
2022/04/16 09:28:31;;;;;;;6.55;6.15;;;;;;;;;;5016625;28;20037;-71
2022/04/16 09:30:57;;;;;;;4.22;3.92;;;;;;;;;;5021426;28;20505;-71
2022/04/16 09:33:23;;;;;;;5.30;4.90;;;;;;;;;;5019881;28;20036;-72
2022/04/16 09:35:52;;;;;;;4.60;4.30;;;;;;;;;;4993268;28;20049;-71
2022/04/16 09:38:18;;;;;;;3.83;3.60;;;;;;;;;;4993593;28;20061;-72
2022/04/16 09:40:47;;;;;;;3.50;3.30;;;;;;;;;;5008915;28;20160;-72
2022/04/16 09:43:13;;;;;;;4.07;3.85;;;;;;;;;;5011232;28;20041;-72
2022/04/16 09:45:40;;;;;;;3.05;2.90;;;;;;;;;;5011194;28;20156;-72
2022/04/16 09:48:12;;;;;;;3.00;2.90;;;;;;;;;;5011195;28;20036;-73
2022/04/16 09:50:38;;;;;;;3.22;3.03;;;;;;;;;;5010684;28;20049;-72
2022/04/16 09:53:04;;;;;;;2.88;2.78;;;;;;;;;;4990375;28;20498;-71
2022/04/16 09:55:29;;;;;;;3.15;2.97;;;;;;;;;;4997314;28;20498;-71
2022/04/16 09:57:59;;;;;;;2.50;2.40;;;;;;;;;;5021791;28;20049;-71
2022/04/16 10:00:25;;;;;;;3.63;3.42;;;;;;;;;;5015443;28;20396;-71
2022/04/16 10:02:53;;;;;;;3.72;3.53;;;;;;;;;;5024919;28;20057;-71
2022/04/16 10:05:22;;;;;;;3.25;3.15;;;;;;;;;;5020646;28;20091;-71
2022/04/16 10:07:48;;;;;;;3.30;3.08;;;;;;;;;;5020439;28;20045;-71
2022/04/16 10:10:25;;;;;;;4.30;4.00;;;;;;;;;;5018599;28;20060;-71
2022/04/16 10:13:00;;;;;;;3.13;3.03;;;;;;;;;;5013476;28;20053;-71
2022/04/16 10:15:35;;;;;;;2.95;2.83;;;;;;;;;;5030415;28;20057;-71
2022/04/16 10:18:02;;;;;;;3.45;3.25;;;;;;;;;;5005416;28;20073;-72
2022/04/16 10:20:28;;;;;;;3.85;3.60;;;;;;;;;;5010663;28;20053;-71
2022/04/16 10:22:54;;;;;;;2.60;2.50;;;;;;;;;;5010021;28;20445;-73
2022/04/16 10:25:34;;;;;;;3.83;3.58;;;;;;;;;;4976064;28;20048;-72
2022/04/16 10:28:02;;;;;;;5.13;4.70;;;;;;;;;;5005968;28;20114;-73
2022/04/16 10:30:34;;;;;;;3.13;2.92;;;;;;;;;;5008948;28;20041;-72
2022/04/16 10:33:02;;;;;;;2.83;2.72;;;;;;;;;;4992725;28;20041;-72
2022/04/16 10:35:28;;;;;;;3.00;2.83;;;;;;;;;;4976480;28;20136;-71
2022/04/16 10:37:54;;;;;;;2.80;2.60;;;;;;;;;;4993131;28;20149;-73
2022/04/16 10:40:24;;;;;;;2.65;2.55;;;;;;;;;;5010184;28;20042;-72
2022/04/16 10:42:51;;;;;;;3.25;3.05;;;;;;;;;;4983341;28;20578;-73
2022/04/16 10:45:17;;;;;;;2.90;2.78;;;;;;;;;;5006660;28;20057;-73
2022/04/16 10:47:45;;;;;;;3.03;2.90;;;;;;;;;;5010522;28;20414;-72
2022/04/16 10:50:15;;;;;;;3.25;2.78;;;;;;;;;;5007472;28;20045;-71
2022/04/16 10:52:51;;;;;;;2.88;2.78;;;;;;;;;;5010559;28;20038;-72
2022/04/16 10:55:17;;;;;;;4.38;2.75;;;;;;;;;;5009677;28;20129;-73
2022/04/16 10:57:42;;;;;;;2.80;2.70;;;;;;;;;;5010093;28;20136;-72
2022/04/16 11:00:12;;;;;;;3.00;2.90;;;;;;;;;;5008975;28;20042;-72
2022/04/16 11:02:40;;;;;;;2.85;2.65;;;;;;;;;;5006732;28;20510;-71
2022/04/16 11:05:06;;;;;;;3.25;3.05;;;;;;;;;;4982496;28;20410;-72
2022/04/16 11:07:40;;;;;;;3.50;3.30;;;;;;;;;;4979761;28;20046;-71
2022/04/16 11:10:06;;;;;;;3.00;2.80;;;;;;;;;;5000908;28;20038;-71
2022/04/16 11:12:32;;;;;;;2.50;2.40;;;;;;;;;;5008969;28;20041;-71
2022/04/16 11:14:58;;;;;;;3.00;2.80;;;;;;;;;;5009906;28;20418;-71
2022/04/16 11:17:24;;;;;;;3.80;3.50;;;;;;;;;;5007563;28;20065;-71
2022/04/16 11:20:00;;;;;;;2.95;2.75;;;;;;;;;;5004324;28;20537;-71
2022/04/16 11:22:26;;;;;;;3.13;2.92;;;;;;;;;;5007145;28;20104;-71
2022/04/16 11:24:52;;;;;;;21.48;3.17;;;;;;;;;;5009621;28;20053;-71
2022/04/16 11:35:57;;;;;;;7.07;6.47;;;;;;;;;;5009173;28;20052;-70
2022/04/16 11:38:30;;;;;;;3.47;3.20;;;;;;;;;;5009185;28;20042;-72
2022/04/16 11:40:57;;;;;;;2.72;2.53;;;;;;;;;;5009327;28;20123;-71
2022/04/16 11:43:28;;;;;;;3.10;2.67;;;;;;;;;;4991913;28;20034;-70
2022/04/16 11:45:55;;;;;;;2.90;2.80;;;;;;;;;;5008337;28;20136;-70
2022/04/16 11:48:21;;;;;;;3.63;3.42;;;;;;;;;;4991729;28;20068;-71
2022/04/16 11:50:47;;;;;;;2.72;2.60;;;;;;;;;;5008857;28;20056;-70
2022/04/16 11:53:13;;;;;;;8.50;2.20;;;;;;;;;;5012067;28;20406;-71
2022/04/16 11:55:49;;;;;;;2.90;2.80;;;;;;;;;;5012861;28;20046;-71
2022/04/16 11:58:15;;;;;;;2.33;2.22;;;;;;;;;;4976095;28;20136;-70
2022/04/16 12:00:51;;;;;;;2.10;2.00;;;;;;;;;;4999554;28;20150;-71
2022/04/16 12:03:17;;;;;;;3.08;2.60;;;;;;;;;;5020151;28;20041;-69
2022/04/16 12:05:43;;;;;;;2.75;2.65;;;;;;;;;;5028538;28;20045;-69
2022/04/16 12:08:09;;;;;;;2.67;2.58;;;;;;;;;;5013425;28;20096;-69
2022/04/16 12:10:35;;;;;;;3.20;2.90;;;;;;;;;;4973030;28;20053;-69
2022/04/16 12:13:06;;;;;;;3.08;2.88;;;;;;;;;;5009543;28;20184;-70
2022/04/16 12:15:32;;;;;;;2.92;2.83;;;;;;;;;;4984084;28;20066;-70
2022/04/16 12:18:07;;;;;;;2.58;2.40;;;;;;;;;;5006027;28;20062;-70
2022/04/16 12:20:33;;;;;;;2.88;2.78;;;;;;;;;;4987827;28;20046;-70
2022/04/16 12:23:02;;;;;;;2.65;2.47;;;;;;;;;;5000139;28;20045;-70
2022/04/16 12:25:28;;;;;;;3.00;2.80;;;;;;;;;;4995472;28;20506;-70
2022/04/16 12:27:54;;;;;;;2.47;2.38;;;;;;;;;;4993154;28;20104;-70
2022/04/16 12:30:24;;;;;;;2.40;2.30;;;;;;;;;;4993034;28;20061;-70
2022/04/16 12:33:02;;;;;;;2.40;2.30;;;;;;;;;;4992601;28;20801;-69
2022/04/16 12:35:28;;;;;;;2.80;2.60;;;;;;;;;;4993744;28;20049;-70
2022/04/16 12:37:54;;;;;;;3.83;3.53;;;;;;;;;;4995051;28;20530;-70
2022/04/16 12:40:20;;;;;;;2.97;2.78;;;;;;;;;;5012275;28;20060;-70
2022/04/16 12:42:47;;;;;;;6.32;2.58;;;;;;;;;;4994623;28;20037;-70
2022/04/16 12:45:13;;;;;;;2.50;2.40;;;;;;;;;;4985584;28;20046;-70
2022/04/16 12:47:39;;;;;;;2.83;2.72;;;;;;;;;;5003150;28;20157;-70
2022/04/16 12:50:06;;;;;;;2.95;2.83;;;;;;;;;;4993091;28;20038;-70
2022/04/16 12:52:34;;;;;;;2.92;2.72;;;;;;;;;;5012116;28;20481;-70
2022/04/16 12:55:00;;;;;;;2.60;2.50;;;;;;;;;;5005184;28;20406;-69
2022/04/16 12:57:25;;;;;;;2.90;2.70;;;;;;;;;;4976490;28;20045;-71
2022/04/16 12:59:51;;;;;;;3.05;2.85;;;;;;;;;;5006653;28;20616;-70
2022/04/16 13:02:18;;;;;;;2.75;2.55;;;;;;;;;;5011623;28;20046;-70
2022/04/16 13:04:44;;;;;;;2.60;2.40;;;;;;;;;;4992922;28;20034;-70
2022/04/16 13:07:10;;;;;;;3.83;3.53;;;;;;;;;;5006920;28;20042;-69
2022/04/16 13:09:36;;;;;;;3.08;2.88;;;;;;;;;;5011397;28;20565;-69
2022/04/16 13:12:02;;;;;;;3.17;2.70;;;;;;;;;;4992013;28;20128;-69
2022/04/16 13:14:28;;;;;;;2.80;2.65;;;;;;;;;;5011943;28;20537;-69
2022/04/16 13:16:55;;;;;;;2.55;2.45;;;;;;;;;;5007307;28;20050;-69
2022/04/16 13:19:22;;;;;;;2.50;2.40;;;;;;;;;;4995330;28;20148;-70
2022/04/16 13:21:48;;;;;;;2.55;2.35;;;;;;;;;;5017739;28;20690;-69
2022/04/16 13:24:15;;;;;;;2.47;2.38;;;;;;;;;;4994628;28;20045;-70
2022/04/16 13:26:43;;;;;;;2.28;2.17;;;;;;;;;;5018128;28;20338;-70
2022/04/16 13:29:09;;;;;;;2.50;2.40;;;;;;;;;;5022401;28;20037;-70
2022/04/16 13:31:35;;;;;;;3.33;3.15;;;;;;;;;;5018783;28;20041;-70
2022/04/16 13:34:02;;;;;;;2.47;2.38;;;;;;;;;;4985883;28;20041;-69
2022/04/16 13:36:28;;;;;;;2.25;2.15;;;;;;;;;;5012226;28;20454;-70
2022/04/16 13:38:57;;;;;;;3.72;1.90;;;;;;;;;;5013472;28;20049;-70
2022/04/16 13:41:38;;;;;;;2.70;2.50;;;;;;;;;;5013362;28;20042;-69
2022/04/16 13:44:10;;;;;;;4.13;2.30;;;;;;;;;;5016949;28;20091;-70
2022/04/16 13:46:37;;;;;;;2.58;2.38;;;;;;;;;;4995168;28;20030;-70
2022/04/16 13:49:03;;;;;;;2.80;2.60;;;;;;;;;;5020172;28;20137;-70
2022/04/16 13:51:31;;;;;;;2.53;2.40;;;;;;;;;;5015118;28;20049;-70
2022/04/16 13:53:58;;;;;;;2.38;2.28;;;;;;;;;;5025841;28;20505;-70
2022/04/16 13:56:52;;;;;;;1.95;1.85;;;;;;;;;;5029366;28;20029;-71
2022/04/16 13:59:19;;;;;;;2.28;2.17;;;;;;;;;;5022665;28;20042;-70
2022/04/16 14:01:48;;;;;;;2.50;2.40;;;;;;;;;;5013138;28;20034;-69
2022/04/16 14:04:14;;;;;;;2.72;2.53;;;;;;;;;;4981802;28;20088;-69
2022/04/16 14:06:40;;;;;;;2.83;2.70;;;;;;;;;;5002787;28;20037;-69
2022/04/16 14:09:06;;;;;;;2.42;2.33;;;;;;;;;;5015967;28;20049;-69
2022/04/16 14:11:34;;;;;;;2.47;2.38;;;;;;;;;;5018971;28;20049;-69
2022/04/16 14:14:00;;;;;;;2.83;2.63;;;;;;;;;;5011368;28;20125;-69
2022/04/16 14:16:26;;;;;;;3.10;2.90;;;;;;;;;;5020037;28;20129;-69
2022/04/16 14:18:53;;;;;;;3.55;3.30;;;;;;;;;;5019629;28;20042;-68
2022/04/16 14:21:19;;;;;;;3.58;3.20;;;;;;;;;;4984348;28;20045;-69
2022/04/16 14:23:44;;;;;;;3.13;2.92;;;;;;;;;;5016624;28;20129;-69
2022/04/16 14:26:10;;;;;;;4.32;4.03;;;;;;;;;;5009881;28;20112;-70
2022/04/16 14:28:36;;;;;;;3.47;3.28;;;;;;;;;;5010229;28;20053;-68
2022/04/16 14:31:03;;;;;;;2.65;2.55;;;;;;;;;;5010141;28;20046;-69
2022/04/16 14:33:34;;;;;;;2.67;2.47;;;;;;;;;;5018278;28;20046;-70
2022/04/16 14:36:03;;;;;;;2.50;2.40;;;;;;;;;;5015098;28;20038;-70
2022/04/16 14:38:30;;;;;;;2.42;2.33;;;;;;;;;;5009642;28;20221;-70
2022/04/16 14:41:09;;;;;;;2.47;2.38;;;;;;;;;;4999158;28;20056;-70
2022/04/16 14:43:43;;;;;;;2.70;2.50;;;;;;;;;;5014573;28;20046;-69
2022/04/16 14:46:12;;;;;;;2.42;2.33;;;;;;;;;;5016640;28;20042;-69
2022/04/16 14:48:39;;;;;;;2.30;2.20;;;;;;;;;;5017132;28;20041;-69
2022/04/16 14:51:04;;;;;;;2.63;2.47;;;;;;;;;;5014522;28;20100;-69
2022/04/16 14:53:31;;;;;;;2.90;2.70;;;;;;;;;;5014898;28;20060;-69
2022/04/16 14:55:57;;;;;;;2.95;2.80;;;;;;;;;;5018503;28;20034;-69
2022/04/16 14:58:24;;;;;;;3.10;2.90;;;;;;;;;;5019032;28;20575;-69